Dripping Springs' Hourly Summary for Sunday, May 13, 2018
Hour Temp
(f)
RH
(%)
Solar Rad.
(MJ/m2)
Rainfall
(in)
Wind
(mph)
5/13/2018 12:00 AM 74 85 0 0 7.75
5/13/2018 1:00 AM 74 85 0 0 7.75
5/13/2018 2:00 AM 73 85 0 0 7.26
5/13/2018 3:00 AM 73 85 0 0 6.07
5/13/2018 4:00 AM 73 86 0 0 6.07
5/13/2018 5:00 AM 72 89 0 0 4.73
5/13/2018 6:00 AM 72 92 0.01 0 4.14
5/13/2018 7:00 AM 72 92 0.11 0 3.59
5/13/2018 8:00 AM 73 92 0.58 0 4.63
5/13/2018 9:00 AM 75 85 0.82 0 5.24
5/13/2018 10:00 AM 78 78 1.91 0 6.54
5/13/2018 11:00 AM 80 70 2.64 0 7.54
5/13/2018 12:00 PM 82 66 2.64 0 7.54
5/13/2018 1:00 PM 84 59 2.85 0 7.5
5/13/2018 2:00 PM 85 53 2.85 0 7.59
5/13/2018 3:00 PM 85 50 2.69 0 7.59
5/13/2018 4:00 PM 87 50 1.94 0 7.26
5/13/2018 5:00 PM 87 46 1.94 0 7.26
5/13/2018 6:00 PM 87 45 1.37 0 6.14
5/13/2018 7:00 PM 87 49 0.62 0 5.93
5/13/2018 8:00 PM 85 56 0.26 0 5.28
5/13/2018 9:00 PM 82 63 0.01 0 6.39
5/13/2018 10:00 PM 80 69 0 0 6.39
5/13/2018 11:00 PM 78 76 0 0 6.92
Data Summary 79 71 23.24 0.00 6.38